Time;durP1;ratioP1;P1;durP2;ratioP2;P2;SDS_P1;SDS_P2;PMS_P1;PMS_P2;Temp;Humidity;BMP_temperature;BMP_pressure;BME280_temperature;BME280_humidity;BME280_pressure;Samples;Min_cycle;Max_cycle;Signal;HPM_P1;HPM_P2
2022/10/23 00:01:37;;;;;;;5.75;2.70;;;12.60;99.90;;;;;;5014255;28;20059;-72
2022/10/23 00:04:12;;;;;;;3.40;2.03;;;12.60;99.90;;;;;;5028592;28;20080;-72
2022/10/23 00:06:38;;;;;;;10.32;2.97;;;12.60;99.90;;;;;;5029029;28;20441;-72
2022/10/23 00:09:07;;;;;;;4.78;1.73;;;12.50;99.90;;;;;;5029079;28;20033;-72
2022/10/23 00:11:34;;;;;;;14.27;2.33;;;12.60;99.90;;;;;;5029194;28;20053;-72
2022/10/23 00:14:03;;;;;;;2.55;1.45;;;12.50;99.90;;;;;;5012320;28;20022;-72
2022/10/23 00:16:30;;;;;;;7.72;2.35;;;12.50;99.90;;;;;;5013764;28;20121;-72
2022/10/23 00:18:56;;;;;;;8.52;2.45;;;12.60;99.90;;;;;;5013890;28;20025;-72
2022/10/23 00:21:22;;;;;;;5.72;2.40;;;12.60;99.90;;;;;;5029032;28;20490;-72
2022/10/23 00:23:48;;;;;;;5.32;2.13;;;12.70;99.90;;;;;;5028318;28;20034;-72
2022/10/23 00:26:14;;;;;;;5.15;2.17;;;12.70;99.90;;;;;;5028763;28;20034;-73
2022/10/23 00:28:42;;;;;;;5.57;2.35;;;12.60;99.90;;;;;;5028789;28;20401;-72
2022/10/23 00:31:09;;;;;;;4.68;1.92;;;12.60;99.90;;;;;;5013352;28;20481;-72
2022/10/23 00:33:35;;;;;;;4.68;2.05;;;12.50;99.90;;;;;;5012710;28;20441;-72
2022/10/23 00:36:08;;;;;;;5.95;2.28;;;12.60;99.90;;;;;;5028644;28;20116;-72
2022/10/23 00:38:35;;;;;;;3.17;1.88;;;12.40;99.90;;;;;;5012301;28;20034;-72
2022/10/23 00:41:01;;;;;;;5.10;2.40;;;12.50;99.90;;;;;;5013499;28;20508;-72
2022/10/23 00:43:29;;;;;;;7.03;2.03;;;12.50;99.90;;;;;;5012462;28;20030;-72
2022/10/23 00:45:56;;;;;;;9.20;3.03;;;12.50;99.90;;;;;;5028381;28;20033;-72
2022/10/23 00:48:22;;;;;;;4.00;2.00;;;12.50;99.90;;;;;;5013198;28;20030;-72
2022/10/23 00:50:49;;;;;;;4.95;2.72;;;12.50;99.90;;;;;;5028634;28;20025;-72
2022/10/23 00:53:17;;;;;;;6.65;2.58;;;12.60;99.90;;;;;;5027786;28;20117;-72
2022/10/23 00:55:46;;;;;;;9.05;2.30;;;12.60;99.90;;;;;;5028006;28;20092;-72
2022/10/23 00:58:18;;;;;;;5.95;1.50;;;12.40;99.90;;;;;;5028200;28;20065;-72
2022/10/23 01:00:49;;;;;;;6.43;1.58;;;12.40;99.90;;;;;;5013260;28;20671;-72
2022/10/23 01:03:17;;;;;;;;;;;12.40;99.90;;;;;;5012633;28;20117;-72
2022/10/23 01:05:56;;;;;;;4.20;2.70;;;12.40;99.90;;;;;;5003968;28;19914;-72
2022/10/23 01:08:39;;;;;;;3.30;2.00;;;12.40;99.90;;;;;;5000180;28;20505;-72
2022/10/23 01:11:28;;;;;;;5.78;2.05;;;12.40;99.90;;;;;;5004403;28;20478;-72
2022/10/23 01:14:16;;;;;;;9.88;1.90;;;12.20;99.90;;;;;;4991405;28;20031;-73
2022/10/23 01:17:22;;;;;;;3.47;1.83;;;12.20;99.90;;;;;;5024537;28;20030;-72
2022/10/23 01:20:22;;;;;;;4.00;1.83;;;12.20;99.90;;;;;;5012619;28;20095;-72
2022/10/23 01:23:25;;;;;;;2.90;1.85;;;11.90;99.90;;;;;;5010619;28;20478;-72
2022/10/23 01:26:43;;;;;;;4.85;1.67;;;11.90;99.90;;;;;;4992910;28;20038;-72
2022/10/23 01:29:20;;;;;;;4.70;1.95;;;12.00;99.90;;;;;;4991711;28;20486;-72
2022/10/23 01:32:16;;;;;;;4.80;2.13;;;12.00;99.90;;;;;;4992934;28;20030;-72
2022/10/23 01:34:53;;;;;;;6.00;2.10;;;12.10;99.90;;;;;;4992736;28;20145;-73
2022/10/23 01:37:27;;;;;;;5.40;2.28;;;12.10;99.90;;;;;;4991225;28;20058;-72
2022/10/23 01:39:59;;;;;;;11.15;2.22;;;12.10;99.90;;;;;;4991510;28;20039;-72
2022/10/23 01:42:33;;;;;;;3.70;2.20;;;12.10;99.90;;;;;;5009275;28;20103;-72
2022/10/23 01:45:14;;;;;;;9.65;3.30;;;12.10;99.90;;;;;;5012346;28;20448;-72
2022/10/23 01:47:42;;;;;;;4.93;2.45;;;12.10;99.90;;;;;;5010887;28;20139;-72
2022/10/23 01:50:11;;;;;;;5.43;2.42;;;12.10;99.90;;;;;;5011997;28;20076;-72
2022/10/23 01:52:37;;;;;;;3.70;1.95;;;12.00;99.90;;;;;;5011139;28;20022;-72
2022/10/23 01:55:06;;;;;;;5.43;2.53;;;12.00;99.90;;;;;;5010787;28;20028;-72
2022/10/23 01:57:33;;;;;;;7.93;2.20;;;12.00;99.90;;;;;;4994431;28;20040;-72
2022/10/23 02:00:11;;;;;;;5.88;1.75;;;12.10;99.90;;;;;;5010611;28;20101;-72
2022/10/23 02:02:40;;;;;;;2.70;1.63;;;12.10;99.90;;;;;;5010046;28;20049;-72
2022/10/23 02:05:15;;;;;;;9.70;2.80;;;12.10;99.90;;;;;;5010532;28;20029;-72
2022/10/23 02:07:42;;;;;;;8.13;2.08;;;12.10;99.90;;;;;;5010171;28;20160;-72
2022/10/23 02:10:09;;;;;;;2.08;1.48;;;11.90;99.90;;;;;;5010619;28;20025;-72
2022/10/23 02:13:10;;;;;;;2.75;1.80;;;11.90;99.90;;;;;;4993553;28;20026;-72
2022/10/23 02:15:48;;;;;;;4.22;2.17;;;11.70;99.90;;;;;;5000552;28;20030;-72
2022/10/23 02:18:45;;;;;;;3.83;1.77;;;11.60;99.90;;;;;;4991847;28;20562;-72
2022/10/23 02:21:22;;;;;;;3.95;2.20;;;11.60;99.90;;;;;;4990975;28;20038;-72
2022/10/23 02:24:14;;;;;;;10.00;2.72;;;11.70;99.90;;;;;;4990089;28;20034;-72
2022/10/23 02:27:01;;;;;;;5.22;1.92;;;11.70;99.90;;;;;;5004091;28;20530;-72
2022/10/23 02:29:37;;;;;;;5.03;1.55;;;11.70;99.90;;;;;;4990422;28;20046;-72
2022/10/23 02:32:06;;;;;;;4.18;2.15;;;11.70;99.90;;;;;;4990766;28;20027;-72
2022/10/23 02:34:32;;;;;;;4.28;2.03;;;11.70;99.90;;;;;;4989771;28;20513;-72
2022/10/23 02:36:57;;;;;;;9.27;3.88;;;11.70;99.90;;;;;;5023666;23;20041;-68
2022/10/23 02:39:26;;;;;;;4.97;2.80;;;11.70;99.90;;;;;;5018701;28;20100;-67
2022/10/23 02:42:11;;;;;;;3.67;1.77;;;11.80;99.90;;;;;;5010022;28;20034;-68
2022/10/23 02:44:53;;;;;;;2.35;1.60;;;11.80;99.90;;;;;;5013500;28;20124;-67
2022/10/23 02:48:06;;;;;;;5.57;2.25;;;11.80;99.90;;;;;;5016801;28;20375;-68
2022/10/23 02:50:45;;;;;;;5.57;2.10;;;11.80;99.90;;;;;;5009789;28;20041;-68
2022/10/23 02:53:41;;;;;;;9.45;1.83;;;11.90;99.90;;;;;;5010323;28;20446;-68
2022/10/23 02:56:50;;;;;;;5.20;2.00;;;11.90;99.90;;;;;;4994417;28;20096;-68
2022/10/23 02:59:25;;;;;;;5.57;1.80;;;11.90;99.90;;;;;;5010838;28;20113;-68
2022/10/23 03:02:18;;;;;;;11.73;2.47;;;11.90;99.90;;;;;;5009848;28;20029;-67
2022/10/23 03:04:45;;;;;;;6.57;2.42;;;11.90;99.90;;;;;;4995828;28;20040;-68
2022/10/23 03:07:13;;;;;;;7.25;1.77;;;11.90;99.90;;;;;;5009609;28;20483;-67
2022/10/23 03:09:39;;;;;;;6.85;3.45;;;11.90;99.90;;;;;;5009255;28;20490;-68
2022/10/23 03:12:05;;;;;;;4.53;2.22;;;12.00;99.90;;;;;;5010864;28;20026;-67
2022/10/23 03:14:31;;;;;;;4.38;2.00;;;12.00;99.90;;;;;;5008987;28;20042;-67
2022/10/23 03:16:56;;;;;;;5.47;2.33;;;12.00;99.90;;;;;;4991145;28;20026;-70
2022/10/23 03:19:22;;;;;;;10.60;2.05;;;12.00;99.90;;;;;;4990900;28;20109;-70
2022/10/23 03:21:48;;;;;;;14.65;2.97;;;12.00;99.90;;;;;;4991128;28;20030;-68
2022/10/23 03:24:13;;;;;;;3.85;1.92;;;12.00;99.90;;;;;;4990358;28;20372;-67
2022/10/23 03:26:39;;;;;;;2.75;1.63;;;12.00;99.90;;;;;;4990941;28;20027;-68
2022/10/23 03:29:05;;;;;;;3.47;1.52;;;12.00;99.90;;;;;;4973510;28;20045;-70
2022/10/23 03:31:30;;;;;;;3.95;1.85;;;12.00;99.90;;;;;;4991023;28;20027;-67
2022/10/23 03:33:56;;;;;;;3.60;1.98;;;11.90;99.90;;;;;;4990068;28;20042;-68
2022/10/23 03:36:22;;;;;;;3.33;2.20;;;11.70;99.90;;;;;;4989416;28;20038;-68
2022/10/23 03:38:48;;;;;;;5.25;1.90;;;11.70;99.90;;;;;;4991075;28;20031;-68
2022/10/23 03:41:13;;;;;;;9.07;1.67;;;11.60;99.90;;;;;;4990971;28;20037;-68
2022/10/23 03:43:39;;;;;;;2.90;1.55;;;11.60;99.90;;;;;;4990151;28;20038;-68
2022/10/23 03:46:08;;;;;;;3.88;1.63;;;11.60;99.90;;;;;;4989878;28;20124;-68
2022/10/23 03:48:38;;;;;;;4.38;2.33;;;11.70;99.90;;;;;;4990938;28;20414;-68
2022/10/23 03:51:05;;;;;;;2.65;1.42;;;11.60;99.90;;;;;;4993170;28;20069;-68
2022/10/23 03:53:31;;;;;;;6.88;1.75;;;11.60;99.90;;;;;;4993905;28;20029;-68
2022/10/23 03:55:56;;;;;;;5.78;1.63;;;11.40;99.90;;;;;;4992859;28;20030;-67
2022/10/23 03:58:22;;;;;;;2.83;1.70;;;11.40;99.90;;;;;;4999084;28;20026;-68
2022/10/23 04:00:48;;;;;;;2.05;1.65;;;11.40;99.90;;;;;;5014192;28;20040;-68
2022/10/23 04:03:13;;;;;;;3.63;1.40;;;11.50;99.90;;;;;;5013377;28;20041;-68
2022/10/23 04:05:41;;;;;;;4.13;1.08;;;11.50;99.90;;;;;;5012483;28;20030;-68
2022/10/23 04:08:07;;;;;;;4.00;1.88;;;11.60;99.90;;;;;;5012486;28;20030;-68
2022/10/23 04:10:33;;;;;;;3.60;1.90;;;11.50;99.90;;;;;;5013729;28;20049;-68
2022/10/23 04:12:59;;;;;;;5.35;2.13;;;11.50;99.90;;;;;;5013245;28;20571;-68
2022/10/23 04:15:24;;;;;;;5.82;2.22;;;11.40;99.90;;;;;;5005408;28;20026;-68
2022/10/23 04:17:50;;;;;;;9.10;3.05;;;11.40;99.90;;;;;;4994036;28;20471;-67
2022/10/23 04:20:16;;;;;;;17.60;3.10;;;11.30;99.90;;;;;;4994374;28;20041;-68
2022/10/23 04:22:42;;;;;;;8.57;2.80;;;11.30;99.90;;;;;;4993301;28;20038;-68
2022/10/23 04:25:08;;;;;;;7.10;3.13;;;11.30;99.90;;;;;;4994027;28;20089;-68
2022/10/23 04:27:33;;;;;;;7.50;2.92;;;11.30;99.90;;;;;;4993770;28;20034;-68
2022/10/23 04:29:59;;;;;;;9.63;2.97;;;11.40;99.90;;;;;;4993910;28;20042;-70
2022/10/23 04:32:25;;;;;;;6.13;2.53;;;11.30;99.90;;;;;;4993303;28;20550;-68
2022/10/23 04:34:51;;;;;;;6.78;2.65;;;11.40;99.90;;;;;;4993867;28;20022;-70
2022/10/23 04:37:17;;;;;;;8.75;2.38;;;11.40;99.90;;;;;;4993366;28;20391;-67
2022/10/23 04:39:43;;;;;;;4.18;2.42;;;11.40;99.90;;;;;;4992454;28;20064;-68
2022/10/23 04:42:08;;;;;;;4.65;2.25;;;11.40;99.90;;;;;;4992310;28;20542;-68
2022/10/23 04:44:34;;;;;;;13.13;2.67;;;11.40;99.90;;;;;;4992967;28;20136;-69
2022/10/23 04:46:59;;;;;;;5.70;2.80;;;11.50;99.90;;;;;;4993844;28;20038;-69
2022/10/23 04:49:25;;;;;;;6.05;2.42;;;11.50;99.90;;;;;;4991984;28;20398;-68
2022/10/23 04:51:51;;;;;;;7.35;3.70;;;11.50;99.90;;;;;;4993488;28;20119;-68
2022/10/23 04:54:17;;;;;;;6.00;2.58;;;11.50;99.90;;;;;;4991444;28;20034;-69
2022/10/23 04:56:42;;;;;;;9.80;3.45;;;11.60;99.90;;;;;;4993264;28;20027;-68
2022/10/23 04:59:08;;;;;;;5.57;3.08;;;11.60;99.90;;;;;;4992538;28;20544;-68
2022/10/23 05:01:34;;;;;;;5.43;2.95;;;11.60;99.90;;;;;;4992934;28;20030;-68
2022/10/23 05:04:00;;;;;;;9.95;3.28;;;11.60;99.90;;;;;;4991337;28;20042;-68
2022/10/23 05:06:26;;;;;;;3.97;2.63;;;11.60;99.90;;;;;;4993187;28;20498;-68
2022/10/23 05:08:51;;;;;;;6.40;1.92;;;11.50;99.90;;;;;;4992936;28;20062;-68
2022/10/23 05:11:17;;;;;;;5.97;2.72;;;11.40;99.90;;;;;;4993207;28;20026;-69
2022/10/23 05:13:43;;;;;;;15.38;3.13;;;11.40;99.90;;;;;;4992287;28;20441;-68
2022/10/23 05:16:11;;;;;;;12.25;3.08;;;11.40;99.90;;;;;;5005693;28;20032;-68
2022/10/23 05:18:43;;;;;;;7.90;3.38;;;11.40;99.90;;;;;;5011551;28;20029;-68
2022/10/23 05:21:20;;;;;;;7.35;2.75;;;11.40;99.90;;;;;;5011375;28;20401;-68
2022/10/23 05:23:46;;;;;;;7.63;3.17;;;11.40;99.90;;;;;;5010409;28;20092;-71
2022/10/23 05:26:12;;;;;;;5.43;3.00;;;11.40;99.90;;;;;;5011347;28;20093;-69
2022/10/23 05:28:37;;;;;;;7.10;3.50;;;11.40;99.90;;;;;;5003966;28;20046;-68
2022/10/23 05:31:05;;;;;;;6.40;3.83;;;11.40;99.90;;;;;;4992541;28;20034;-69
2022/10/23 05:33:31;;;;;;;10.13;3.38;;;11.40;99.90;;;;;;4991917;28;20026;-69
2022/10/23 05:35:58;;;;;;;11.00;3.47;;;11.40;99.90;;;;;;4991031;28;20053;-69
2022/10/23 05:38:26;;;;;;;6.82;3.45;;;11.40;99.90;;;;;;4991498;28;20030;-68
2022/10/23 05:40:53;;;;;;;4.65;3.40;;;11.50;99.90;;;;;;4991139;28;20069;-69
2022/10/23 05:43:18;;;;;;;6.10;2.75;;;11.40;99.90;;;;;;4990586;28;20053;-69
2022/10/23 05:45:44;;;;;;;6.68;3.28;;;11.40;99.90;;;;;;4992464;28;20642;-69
2022/10/23 05:48:14;;;;;;;7.28;3.25;;;11.40;99.90;;;;;;4991151;28;20030;-69
2022/10/23 05:50:39;;;;;;;10.75;3.63;;;11.30;99.90;;;;;;4992324;28;20025;-69
2022/10/23 05:53:05;;;;;;;10.25;2.72;;;11.20;99.90;;;;;;4991762;28;20030;-69
2022/10/23 05:55:31;;;;;;;7.10;3.13;;;11.00;99.90;;;;;;4991921;28;20391;-69
2022/10/23 05:57:57;;;;;;;8.55;4.22;;;11.00;99.90;;;;;;4992069;28;20034;-68
2022/10/23 06:00:23;;;;;;;5.65;3.33;;;10.90;99.90;;;;;;4992049;28;20038;-68
2022/10/23 06:02:48;;;;;;;8.48;3.17;;;10.90;99.90;;;;;;5009256;28;20108;-68
2022/10/23 06:05:14;;;;;;;6.70;3.38;;;10.90;99.90;;;;;;5011394;28;20492;-69
2022/10/23 06:07:40;;;;;;;5.70;2.90;;;10.90;99.90;;;;;;5007652;28;20030;-67
2022/10/23 06:10:07;;;;;;;7.93;3.15;;;11.00;99.90;;;;;;5011735;28;20021;-69
2022/10/23 06:12:32;;;;;;;6.60;3.40;;;11.00;99.90;;;;;;5010269;28;20026;-68
2022/10/23 06:14:58;;;;;;;7.50;3.95;;;10.90;99.90;;;;;;5011423;28;20032;-68
2022/10/23 06:17:24;;;;;;;6.90;3.17;;;10.90;99.90;;;;;;5011504;28;20097;-69
2022/10/23 06:19:49;;;;;;;5.47;3.83;;;11.00;99.90;;;;;;5011530;28;20030;-70
2022/10/23 06:22:15;;;;;;;6.10;2.78;;;11.00;99.90;;;;;;5004351;28;20034;-70
2022/10/23 06:24:41;;;;;;;6.95;3.20;;;11.00;99.90;;;;;;4999899;28;20027;-69
2022/10/23 06:27:06;;;;;;;6.20;3.25;;;11.10;99.90;;;;;;5001409;28;20037;-69
2022/10/23 06:29:32;;;;;;;7.22;3.50;;;11.00;99.90;;;;;;5001587;28;20046;-69
2022/10/23 06:31:58;;;;;;;5.60;2.83;;;10.90;99.90;;;;;;5019200;28;20087;-67
2022/10/23 06:34:23;;;;;;;10.77;3.70;;;10.80;99.90;;;;;;5005625;28;20022;-68
2022/10/23 06:36:49;;;;;;;5.65;2.58;;;10.80;99.90;;;;;;5002573;28;20038;-67
2022/10/23 06:39:15;;;;;;;5.97;2.83;;;10.90;99.90;;;;;;4991515;28;20037;-67
2022/10/23 06:41:43;;;;;;;5.82;2.90;;;10.80;99.90;;;;;;4993361;28;20034;-68
2022/10/23 06:44:10;;;;;;;5.35;3.20;;;10.80;99.90;;;;;;4993175;28;20030;-68
2022/10/23 06:46:36;;;;;;;12.55;3.67;;;10.90;99.90;;;;;;4991406;28;20121;-68
2022/10/23 06:49:02;;;;;;;6.50;3.75;;;11.00;99.90;;;;;;4991161;28;20034;-68
2022/10/23 06:51:28;;;;;;;12.93;4.68;;;11.00;99.90;;;;;;4991512;28;20031;-67
2022/10/23 06:53:55;;;;;;;13.55;4.18;;;11.10;99.90;;;;;;4990528;28;20495;-68
2022/10/23 06:56:21;;;;;;;8.85;3.25;;;11.20;99.90;;;;;;4991402;28;20030;-68
2022/10/23 06:58:47;;;;;;;8.07;3.85;;;11.20;99.90;;;;;;4973991;28;20050;-67
2022/10/23 07:01:15;;;;;;;9.85;3.97;;;11.30;99.90;;;;;;4990117;28;20093;-68
2022/10/23 07:03:41;;;;;;;38.08;17.02;;;11.40;99.90;;;;;;5003831;28;20479;-68
2022/10/23 07:06:09;;;;;;;17.83;8.18;;;11.40;99.90;;;;;;5006842;28;20132;-68
2022/10/23 07:08:35;;;;;;;11.70;5.35;;;11.50;99.90;;;;;;4991116;28;20038;-69
2022/10/23 07:11:07;;;;;;;15.30;5.90;;;11.70;99.90;;;;;;4989957;28;20142;-68
2022/10/23 07:13:34;;;;;;;8.13;4.47;;;11.70;99.90;;;;;;4975272;28;20384;-68
2022/10/23 07:16:13;;;;;;;8.20;4.93;;;11.80;99.90;;;;;;4991058;28;20038;-68
2022/10/23 07:18:39;;;;;;;12.77;5.68;;;11.90;99.90;;;;;;4989800;28;20073;-68
2022/10/23 07:21:04;;;;;;;17.80;8.73;;;11.90;99.90;;;;;;4991331;28;20034;-68
2022/10/23 07:23:30;;;;;;;15.98;8.13;;;12.00;99.90;;;;;;4991401;28;20034;-68
2022/10/23 07:26:10;;;;;;;17.63;7.85;;;12.00;99.90;;;;;;4995185;28;20026;-69
2022/10/23 07:28:35;;;;;;;9.60;4.00;;;12.10;99.90;;;;;;4994894;28;20030;-68
2022/10/23 07:31:02;;;;;;;9.70;4.53;;;12.20;99.90;;;;;;4993685;28;20034;-68
2022/10/23 07:33:27;;;;;;;12.75;4.30;;;12.40;99.90;;;;;;5005465;28;20482;-68
2022/10/23 07:35:53;;;;;;;12.27;5.53;;;12.40;99.90;;;;;;5014230;28;20083;-69
2022/10/23 07:38:19;;;;;;;10.48;4.07;;;12.50;99.90;;;;;;5014542;28;20100;-69
2022/10/23 07:40:45;;;;;;;9.38;5.25;;;12.50;99.90;;;;;;5014355;28;20125;-68
2022/10/23 07:43:10;;;;;;;16.02;3.88;;;12.60;99.90;;;;;;5013643;28;20040;-69
2022/10/23 07:45:36;;;;;;;10.50;4.35;;;12.60;99.90;;;;;;5013145;28;20038;-68
2022/10/23 07:48:02;;;;;;;7.57;4.35;;;12.50;99.90;;;;;;5008498;28;20042;-69
2022/10/23 07:50:27;;;;;;;9.40;4.53;;;12.50;99.90;;;;;;5013383;28;20041;-69
2022/10/23 07:52:53;;;;;;;11.68;6.18;;;12.70;99.90;;;;;;5012989;28;20084;-69
2022/10/23 07:55:19;;;;;;;13.93;5.47;;;12.80;99.90;;;;;;5009063;28;20491;-68
2022/10/23 07:57:45;;;;;;;15.23;6.88;;;12.90;99.90;;;;;;5008856;28;20022;-68
2022/10/23 08:00:11;;;;;;;11.02;5.30;;;12.90;99.90;;;;;;5009106;28;20030;-68
2022/10/23 08:02:36;;;;;;;9.35;5.88;;;13.10;99.90;;;;;;4997420;28;20030;-68
2022/10/23 08:05:03;;;;;;;21.70;10.88;;;13.10;99.90;;;;;;5012438;28;20037;-67
2022/10/23 08:07:29;;;;;;;20.65;8.45;;;13.20;99.90;;;;;;5011871;28;20026;-67
2022/10/23 08:09:55;;;;;;;12.85;5.95;;;13.30;99.90;;;;;;5013498;28;20041;-67
2022/10/23 08:12:21;;;;;;;11.90;5.35;;;13.40;99.90;;;;;;5012773;28;20034;-67
2022/10/23 08:14:46;;;;;;;13.18;5.93;;;13.60;99.90;;;;;;4995821;28;20045;-68
2022/10/23 08:17:12;;;;;;;11.32;5.90;;;13.80;99.90;;;;;;5011351;28;20030;-67
2022/10/23 08:19:38;;;;;;;10.25;5.85;;;13.80;99.90;;;;;;5013569;28;20040;-67
2022/10/23 08:22:03;;;;;;;20.95;6.50;;;14.00;99.90;;;;;;5013564;28;20042;-68
2022/10/23 08:24:29;;;;;;;10.07;5.97;;;14.00;99.90;;;;;;5012099;28;20394;-67
2022/10/23 08:26:55;;;;;;;18.70;6.57;;;14.10;99.90;;;;;;5013147;28;20116;-68
2022/10/23 08:29:21;;;;;;;14.52;5.18;;;14.10;99.90;;;;;;5009904;28;20030;-68
2022/10/23 08:31:46;;;;;;;12.60;5.90;;;14.20;99.90;;;;;;4993754;28;20441;-70
2022/10/23 08:34:12;;;;;;;12.68;5.25;;;14.40;99.90;;;;;;5009394;28;20022;-70
2022/10/23 08:36:38;;;;;;;15.32;5.32;;;14.40;99.90;;;;;;5019834;23;20041;-72
2022/10/23 08:39:05;;;;;;;24.15;5.47;;;14.20;99.90;;;;;;5031171;28;20090;-69
2022/10/23 08:41:46;;;;;;;12.20;5.78;;;14.20;99.90;;;;;;5014789;28;20037;-68
2022/10/23 08:44:18;;;;;;;10.90;5.85;;;14.30;99.90;;;;;;5011952;28;20682;-71
2022/10/23 08:46:52;;;;;;;9.57;5.32;;;14.70;99.90;;;;;;5005032;28;20033;-72
2022/10/23 08:49:42;;;;;;;11.75;5.07;;;14.70;99.90;;;;;;4991593;28;20034;-71
2022/10/23 08:52:23;;;;;;;9.35;5.05;;;14.50;99.90;;;;;;4999900;28;20509;-70
2022/10/23 08:55:16;;;;;;;11.05;5.30;;;14.60;99.90;;;;;;5012602;28;20038;-71
2022/10/23 08:58:14;;;;;;;8.38;4.65;;;15.10;99.90;;;;;;5012304;28;20519;-71
2022/10/23 09:00:42;;;;;;;11.55;4.82;;;14.90;99.90;;;;;;5011442;28;20124;-70
2022/10/23 09:03:11;;;;;;;11.85;5.65;;;14.90;99.90;;;;;;5009694;28;20045;-71
2022/10/23 09:06:49;;;;;;;11.88;5.40;;;15.30;99.90;;;;;;5010969;28;20045;-71
2022/10/23 09:10:01;;;;;;;9.60;4.72;;;15.60;99.90;;;;;;4932097;29;20040;-70
2022/10/23 09:12:29;;;;;;;7.10;3.70;;;15.80;99.90;;;;;;4931454;29;20042;-70
2022/10/23 09:15:30;;;;;;;5.70;3.95;;;15.80;99.90;;;;;;4932061;29;20047;-71
2022/10/23 09:18:10;;;;;;;6.93;2.97;;;16.00;99.90;;;;;;4932100;29;20042;-70
2022/10/23 09:20:36;;;;;;;14.15;3.90;;;16.30;99.90;;;;;;4932215;29;20051;-71
2022/10/23 09:23:23;;;;;;;10.98;3.45;;;16.60;99.90;;;;;;4931363;29;20035;-71
2022/10/23 09:25:55;;;;;;;6.20;2.75;;;16.30;99.90;;;;;;4931928;29;20039;-71
2022/10/23 09:28:29;;;;;;;6.38;2.83;;;16.40;99.90;;;;;;4932220;29;20039;-70
2022/10/23 09:31:09;;;;;;;8.52;3.10;;;16.40;99.90;;;;;;4932029;29;20123;-69
2022/10/23 09:33:36;;;;;;;8.73;2.50;;;16.80;99.90;;;;;;4930410;29;20127;-56
2022/10/23 09:36:28;;;;;;;4.47;2.42;;;16.70;99.90;;;;;;4932040;29;20070;-70
2022/10/23 09:39:00;;;;;;;3.65;1.95;;;17.10;99.90;;;;;;4941372;28;20054;-70
2022/10/23 09:41:38;;;;;;;5.07;1.77;;;17.60;99.90;;;;;;4992516;28;20760;-71
2022/10/23 09:44:07;;;;;;;5.03;2.45;;;17.70;99.90;;;;;;4989378;28;20038;-70
2022/10/23 09:46:41;;;;;;;6.65;2.50;;;17.30;99.90;;;;;;4989918;28;20076;-70
2022/10/23 09:49:22;;;;;;;4.88;1.63;;;17.40;99.90;;;;;;4990572;28;20243;-70
2022/10/23 09:52:05;;;;;;;8.05;2.47;;;17.50;99.90;;;;;;4991585;28;20034;-70
2022/10/23 09:54:43;;;;;;;4.65;2.28;;;17.50;99.90;;;;;;4989812;28;20027;-70
2022/10/23 09:57:41;;;;;;;5.10;2.33;;;17.30;99.90;;;;;;4990920;28;20057;-71
2022/10/23 10:00:13;;;;;;;9.75;2.30;;;17.20;99.90;;;;;;4990531;28;20030;-71
2022/10/23 10:02:40;;;;;;;6.32;2.13;;;17.30;99.90;;;;;;4994423;28;20430;-70
2022/10/23 10:05:33;;;;;;;11.10;2.17;;;17.60;99.90;;;;;;5011259;28;20056;-71
2022/10/23 10:08:09;;;;;;;3.03;1.75;;;17.80;99.90;;;;;;5011325;28;20057;-70
2022/10/23 10:10:42;;;;;;;3.20;1.75;;;18.00;99.90;;;;;;5010183;28;20026;-71
2022/10/23 10:13:32;;;;;;;4.18;1.85;;;17.70;99.90;;;;;;5009051;28;20034;-72
2022/10/23 10:16:05;;;;;;;6.05;2.28;;;17.80;99.90;;;;;;5011068;28;20030;-70
2022/10/23 10:19:10;;;;;;;5.38;2.00;;;17.70;99.90;;;;;;5009296;28;20096;-70
2022/10/23 10:21:55;;;;;;;2.75;1.67;;;17.60;99.90;;;;;;5009992;28;20033;-71
2022/10/23 10:24:34;;;;;;;3.78;1.90;;;17.60;99.90;;;;;;4993282;28;20030;-69
2022/10/23 10:27:31;;;;;;;3.60;1.48;;;17.60;99.90;;;;;;5009795;28;20056;-71
2022/10/23 10:30:17;;;;;;;5.88;3.20;;;17.60;99.90;;;;;;5009367;28;20120;-71
2022/10/23 10:33:25;;;;;;;3.17;1.67;;;17.60;99.90;;;;;;4995124;28;20034;-71
2022/10/23 10:36:01;;;;;;;2.53;1.70;;;17.50;99.90;;;;;;5010773;28;20050;-71
2022/10/23 10:38:56;;;;;;;5.18;2.03;;;17.50;99.90;;;;;;5010079;28;20142;-71
2022/10/23 10:41:44;;;;;;;8.65;2.15;;;17.60;99.90;;;;;;4993582;28;20037;-70
2022/10/23 10:44:22;;;;;;;13.25;2.05;;;17.90;99.90;;;;;;4990751;28;20057;-69
2022/10/23 10:47:12;;;;;;;4.75;2.00;;;18.20;99.90;;;;;;4996286;28;20038;-70
2022/10/23 10:50:34;;;;;;;4.47;2.15;;;18.40;99.90;;;;;;5000572;28;20042;-72
2022/10/23 10:53:21;;;;;;;3.03;1.60;;;18.80;99.90;;;;;;5000104;28;20476;-73
2022/10/23 10:55:52;;;;;;;4.10;1.80;;;18.70;99.90;;;;;;4997475;28;20038;-72
2022/10/23 10:58:55;;;;;;;10.48;1.83;;;19.00;99.90;;;;;;4990076;28;20034;-72
2022/10/23 11:01:33;;;;;;;3.55;1.70;;;19.70;99.90;;;;;;4990105;28;20075;-73
2022/10/23 11:04:12;;;;;;;2.58;1.27;;;20.40;99.90;;;;;;5006400;28;20022;-73
2022/10/23 11:06:43;;;;;;;3.65;1.38;;;20.10;99.90;;;;;;5009309;28;20033;-72
2022/10/23 11:09:27;;;;;;;3.95;1.15;;;20.00;99.90;;;;;;4993879;28;20026;-73
2022/10/23 11:11:53;;;;;;;2.03;1.15;;;19.80;99.90;;;;;;5009812;28;20072;-73
2022/10/23 11:14:26;;;;;;;2.53;1.10;;;20.20;99.90;;;;;;5008797;28;20474;-72
2022/10/23 11:17:15;;;;;;;1.83;1.00;;;20.20;99.90;;;;;;5009175;28;20049;-73
2022/10/23 11:20:02;;;;;;;3.00;1.30;;;20.00;99.90;;;;;;5000902;28;20117;-72
2022/10/23 11:23:23;;;;;;;2.05;1.58;;;19.90;99.90;;;;;;5017966;28;20026;-73
2022/10/23 11:26:09;;;;;;;;;;;20.60;99.90;;;;;;5008984;28;20037;-72
2022/10/23 11:29:09;;;;;;;1.77;1.10;;;20.20;99.90;;;;;;4997771;28;19914;-72
2022/10/23 11:32:05;;;;;;;2.93;1.07;;;19.90;99.90;;;;;;4999652;28;20580;-72
2022/10/23 11:35:18;;;;;;;2.00;1.08;;;19.60;99.90;;;;;;5004802;28;20502;-73
2022/10/23 11:37:44;;;;;;;2.17;1.00;;;19.80;99.90;;;;;;5006228;28;20069;-73
2022/10/23 11:40:09;;;;;;;5.65;1.15;;;20.50;99.90;;;;;;5000268;28;20072;-73
2022/10/23 11:42:38;;;;;;;0.90;0.60;;;20.90;99.90;;;;;;5008201;28;20038;-72
2022/10/23 11:45:53;;;;;;;0.75;0.60;;;20.80;99.90;;;;;;5009507;28;20080;-72
2022/10/23 11:48:35;;;;;;;1.20;0.35;;;21.10;99.90;;;;;;4991418;28;20042;-73
2022/10/23 11:51:03;;;;;;;0.68;0.30;;;21.70;99.90;;;;;;5009294;28;20034;-73
2022/10/23 11:53:32;;;;;;;1.13;0.60;;;22.40;99.90;;;;;;5008292;28;20022;-73
2022/10/23 11:56:12;;;;;;;1.75;0.55;;;22.90;99.90;;;;;;5007928;28;20033;-72
2022/10/23 11:58:57;;;;;;;8.82;0.40;;;22.60;99.90;;;;;;5008006;28;20042;-73
2022/10/23 12:01:40;;;;;;;0.60;0.30;;;22.10;99.90;;;;;;5008024;28;20473;-73
2022/10/23 12:04:37;;;;;;;0.68;0.50;;;21.70;99.90;;;;;;5007686;28;20084;-73
2022/10/23 12:07:21;;;;;;;0.30;0.30;;;22.20;99.90;;;;;;5008471;28;20038;-73
2022/10/23 12:10:36;;;;;;;0.68;0.38;;;23.20;99.90;;;;;;5008907;28;20037;-73
2022/10/23 12:13:05;;;;;;;0.95;0.52;;;24.00;99.90;;;;;;4985028;28;20089;-72
2022/10/23 12:15:33;;;;;;;0.17;0.17;;;23.90;99.90;;;;;;5011598;28;20030;-71
2022/10/23 12:18:16;;;;;;;1.08;0.50;;;23.90;99.90;;;;;;5007576;28;20077;-71
2022/10/23 12:21:00;;;;;;;0.10;0.10;;;24.20;99.30;;;;;;5004295;28;20030;-71
2022/10/23 12:23:49;;;;;;;1.20;0.50;;;23.80;99.90;;;;;;5011737;28;20064;-71
2022/10/23 12:26:36;;;;;;;0.60;0.40;;;24.30;99.80;;;;;;5010741;28;20125;-70
2022/10/23 12:29:48;;;;;;;1.25;0.22;;;23.90;99.70;;;;;;5012677;28;20040;-70
2022/10/23 12:32:40;;;;;;;1.85;0.60;;;23.40;99.90;;;;;;4997593;28;20049;-72
2022/10/23 12:35:17;;;;;;;0.40;0.32;;;22.30;99.90;;;;;;5010890;28;20041;-71
2022/10/23 12:38:14;;;;;;;3.05;0.60;;;21.90;99.90;;;;;;5003835;28;20045;-69
2022/10/23 12:40:44;;;;;;;0.30;0.20;;;22.20;99.90;;;;;;4990997;28;20030;-69
2022/10/23 12:43:27;;;;;;;1.08;0.38;;;22.30;99.90;;;;;;4992071;28;20554;-70
2022/10/23 12:45:55;;;;;;;0.73;0.30;;;22.20;99.90;;;;;;4989438;28;20030;-70
2022/10/23 12:48:23;;;;;;;0.30;0.30;;;22.30;99.90;;;;;;4988946;28;20786;-69
2022/10/23 12:50:53;;;;;;;0.40;0.30;;;22.10;99.90;;;;;;4989852;28;20683;-70
2022/10/23 12:53:21;;;;;;;1.60;0.67;;;22.70;99.90;;;;;;4996311;28;20029;-71
2022/10/23 12:56:03;;;;;;;0.60;0.50;;;22.70;99.90;;;;;;5008899;28;20104;-71
2022/10/23 12:58:33;;;;;;;0.70;0.30;;;22.60;99.90;;;;;;5009639;28;20044;-71
2022/10/23 13:01:03;;;;;;;3.30;0.52;;;23.10;99.90;;;;;;5010639;28;20116;-71
2022/10/23 13:03:31;;;;;;;1.38;0.40;;;23.50;99.90;;;;;;5009579;28;20030;-71
2022/10/23 13:05:59;;;;;;;11.35;3.08;;;24.50;99.90;;;;;;5012452;28;20061;-71
2022/10/23 13:08:40;;;;;;;1.42;1.05;;;25.00;99.80;;;;;;5010782;28;20033;-71
2022/10/23 13:11:08;;;;;;;0.75;0.32;;;25.70;98.50;;;;;;5010716;28;20026;-71
2022/10/23 13:13:34;;;;;;;1.55;0.30;;;25.20;98.20;;;;;;5009624;28;20089;-70
2022/10/23 13:16:00;;;;;;;0.63;0.30;;;24.50;99.50;;;;;;5012114;28;20064;-71
2022/10/23 13:18:25;;;;;;;0.85;0.50;;;24.80;99.90;;;;;;5010066;28;20034;-71
2022/10/23 13:20:51;;;;;;;0.80;0.13;;;24.40;99.20;;;;;;5011494;28;20033;-71